Chester Depot, Vermont
Current Conditions -  °F | °C
As of 1:54 PM on Friday 21 Nov 2014 (Local Time) from KVSF Reporting Station
Light Snow Light Snow  
Wind Chill: 17°   Ceiling: 3700
Heat Index: 27°   Visibility: 9mi
Dew Point: 12°   Wind: 12mph
Humidity: 53%   Direction: 310°NW
Pressure: 30.19"   Gusts: 18mph
Location:  43.36°N, 72.57°W
Report Text: KVSF 211854Z AUTO 31010G16KT 9SM -SN BKN037 BKN046 M03/M11 A3019 RMK AO2 SNE1755B49 SLP233 P0000 T10281111
Loading
Personal Weather Stations






























Interactive Weather Map New forecast layout! Learn more

10-Day Weather Forecast

Advertisements
Track Severe Weather on mobile